Svartfoss — V2PR3 — position and weather

sailwx.info

Track history (hours):
 
Tides and Currents Weather Stations Pressure Air Temp Water Temp Dewpoint Dewpoint Depression Visibility Wind Speed Wind Dir Waves Ship Positions

Svartfoss

Last reported at 2015-Apr-01 17:33 UTC. Time now 2015-Apr-01 17:54 UTC.
Position N 53°35' W 000°04'.

Length 80 m; draft 5.6 m.

Type: Cargo ship. MMSI: 304882000.

Date/timePositionNaut miles runAvg speedWind from/ knotsBaromVisibWave heightAir tempDewpointWater temp
2015-Apr-01 17:33N 53°35' W 000°04'0 0.0
2015-Apr-01 16:33N 53°35' W 000°04'0 0.0
2015-Apr-01 15:33N 53°35' W 000°04'0 0.0
2015-Apr-01 14:33N 53°35' W 000°04'0 0.0
2015-Apr-01 13:33N 53°35' W 000°04'0 0.0
2015-Apr-01 12:33N 53°35' W 000°04'0 0.0
2015-Apr-01 11:33N 53°35' W 000°04'0 0.0
2015-Apr-01 10:33N 53°35' W 000°04'0 0.0
2015-Apr-01 09:33N 53°35' W 000°04'0 0.0
2015-Apr-01 08:33N 53°35' W 000°04'0 0.0
2015-Apr-01 07:33N 53°35' W 000°04'0 0.0
2015-Apr-01 06:33N 53°35' W 000°04'0 0.0
2015-Apr-01 05:33N 53°35' W 000°04'0 0.0
2015-Apr-01 04:33N 53°35' W 000°04'0 0.0
2015-Apr-01 03:34N 53°35' W 000°04'1 1.3
2015-Apr-01 02:33N 53°35' W 000°02'8 7.9
2015-Apr-01 01:33N 53°33' E 000°10'7 7.1
2015-Apr-01 00:33N 53°33' E 000°22'5 3.8
2015-Mar-31 23:14N 53°29' E 000°28'36 7.6
2015-Mar-31 18:29N 53°09' E 001°17'9 9.3
2015-Mar-31 17:33N 53°02' E 001°27'8 8.2
2015-Mar-31 16:33N 52°56' E 001°36'9 9.0
2015-Mar-31 15:32N 52°50' E 001°48'95 8.5
2015-Mar-31 04:23N 52°29' E 004°21'7 8.5
2015-Mar-31 03:33N 52°28' E 004°32'5 4.6
2015-Mar-31 02:34N 52°28' E 004°40'0 0.2
2015-Mar-31 01:33N 52°28' E 004°40'0 0.0
2015-Mar-31 00:33N 52°28' E 004°40'0 0.0
2015-Mar-30 23:33N 52°28' E 004°40'0 0.0
2015-Mar-30 22:33N 52°28' E 004°40'0 0.0
2015-Mar-30 21:33N 52°28' E 004°40'0 0.0
2015-Mar-30 20:33N 52°28' E 004°40'0 0.0
2015-Mar-30 19:33N 52°28' E 004°40'0 0.0
2015-Mar-30 18:33N 52°28' E 004°40'0 0.0
2015-Mar-30 17:33N 52°28' E 004°40'0 0.0
2015-Mar-30 16:33N 52°28' E 004°40'0 0.0
2015-Mar-30 15:33N 52°28' E 004°40'0 0.0
2015-Mar-30 14:33N 52°28' E 004°40'0 0.0
2015-Mar-30 13:33N 52°28' E 004°40'0 0.0
2015-Mar-30 12:33N 52°28' E 004°40'0 0.0
2015-Mar-30 11:33N 52°28' E 004°40'0 0.0
2015-Mar-30 10:33N 52°28' E 004°40'0 0.0
2015-Mar-30 09:33N 52°28' E 004°40'0 0.0
2015-Mar-30 08:33N 52°28' E 004°40'0 0.0
2015-Mar-30 07:33N 52°28' E 004°40'0 0.0
2015-Mar-30 06:33N 52°28' E 004°40'0 0.0
2015-Mar-30 05:33N 52°28' E 004°40'0 0.0
2015-Mar-30 04:33N 52°28' E 004°40'2 2.4
2015-Mar-30 03:34N 52°28' E 004°36'8 8.2
2015-Mar-30 02:33N 52°31' E 004°23'37711.7
2015-Mar-28 18:17N 58°47' E 005°17'3 3.1
2015-Mar-28 17:27N 58°49' E 005°18'3 3.4
2015-Mar-28 16:33N 58°52' E 005°18'6 6.1
2015-Mar-28 15:33N 58°58' E 005°19'10 9.7
2015-Mar-28 14:33N 59°08' E 005°20'240 5.4
2015-Mar-26 18:06N 63°02' E 007°13'14711.8
2015-Mar-26 05:33N 64°48' E 011°06'5 5.1
2015-Mar-26 04:33N 64°52' E 011°14'5 5.4
2015-Mar-26 03:33N 64°55' E 011°24'1413.9
2015-Mar-26 02:33N 65°05' E 011°47'62 9.9
2015-Mar-25 20:17N 66°04' E 012°38'1013.0
2015-Mar-25 19:33N 66°13' E 012°37'1512.4
2015-Mar-25 18:22N 66°22' E 012°07'910.5
2015-Mar-25 17:33N 66°30' E 012°06'2 1.5
2015-Mar-25 16:31N 66°29' E 012°09'1613.6
2015-Mar-25 15:19N 66°39' E 012°42'1214.0
2015-Mar-25 14:29N 66°44' E 013°08'1213.0
2015-Mar-25 13:33N 66°54' E 013°26'1312.6
2015-Mar-25 12:33N 67°03' E 013°49'1413.8
2015-Mar-25 11:33N 67°14' E 014°09'1413.5
2015-Mar-25 10:34N 67°26' E 014°27'1713.5
2015-Mar-25 09:20N 67°41' E 014°12'1113.5
2015-Mar-25 08:31N 67°52' E 014°03'1413.9
2015-Mar-25 07:30N 68°05' E 013°51'2 2.1
2015-Mar-25 06:25N 68°07' E 013°50'0 0.0
2015-Mar-25 05:15N 68°07' E 013°50'0 0.0
2015-Mar-25 04:32N 68°07' E 013°50'0 0.0
2015-Mar-25 03:28N 68°07' E 013°50'137 5.9
2015-Mar-24 04:16N 69°34' E 018°45'6 7.8
2015-Mar-24 03:33N 69°38' E 018°57'0 0.0
2015-Mar-24 02:33N 69°38' E 018°57'0 0.0
2015-Mar-24 01:33N 69°38' E 018°57'0 0.1
2015-Mar-24 00:33N 69°38' E 018°57'2 1.9
2015-Mar-23 23:33N 69°39' E 018°58'0 0.0
2015-Mar-23 22:33N 69°39' E 018°58'0 0.0
2015-Mar-23 21:33N 69°39' E 018°58'8213.5
2015-Mar-23 15:26N 70°27' E 022°16'1314.6
2015-Mar-23 14:34N 70°31' E 022°52'1413.6
2015-Mar-23 13:33N 70°38' E 023°27'4 4.5
2015-Mar-23 12:33N 70°38' E 023°40'0 0.0
2015-Mar-23 11:34N 70°38' E 023°40'0 0.0
2015-Mar-23 10:33N 70°38' E 023°40'0 0.0
2015-Mar-23 09:33N 70°38' E 023°40'0 0.0
2015-Mar-23 08:33N 70°38' E 023°40'0 0.0
2015-Mar-23 07:34N 70°38' E 023°40'0 0.0
2015-Mar-23 06:33N 70°38' E 023°40'2 1.7
2015-Mar-23 05:33N 70°40' E 023°39'0 0.4
2015-Mar-23 04:33N 70°40' E 023°40'3 3.3
2015-Mar-23 03:33N 70°42' E 023°31'  
Track history (hours):
 
Tides and Currents Weather Stations Pressure Air Temp Water Temp Dewpoint Dewpoint Depression Visibility Wind Speed Wind Dir Waves Ship Positions

Svartfoss

Last reported at 2015-Apr-01 17:33 UTC. Time now 2015-Apr-01 17:54 UTC.
Position N 53°35' W 000°04'.

Length 80 m; draft 5.6 m.

Type: Cargo ship. MMSI: 304882000.

Date/timePositionNaut miles runAvg speedWind from/ knotsBaromVisibWave heightAir tempDewpointWater temp
2015-Apr-01 17:33N 53°35' W 000°04'0 0.0
2015-Apr-01 16:33N 53°35' W 000°04'0 0.0
2015-Apr-01 15:33N 53°35' W 000°04'0 0.0
2015-Apr-01 14:33N 53°35' W 000°04'0 0.0
2015-Apr-01 13:33N 53°35' W 000°04'0 0.0
2015-Apr-01 12:33N 53°35' W 000°04'0 0.0
2015-Apr-01 11:33N 53°35' W 000°04'0 0.0
2015-Apr-01 10:33N 53°35' W 000°04'0 0.0
2015-Apr-01 09:33N 53°35' W 000°04'0 0.0
2015-Apr-01 08:33N 53°35' W 000°04'0 0.0
2015-Apr-01 07:33N 53°35' W 000°04'0 0.0
2015-Apr-01 06:33N 53°35' W 000°04'0 0.0
2015-Apr-01 05:33N 53°35' W 000°04'0 0.0
2015-Apr-01 04:33N 53°35' W 000°04'0 0.0
2015-Apr-01 03:34N 53°35' W 000°04'1 1.3
2015-Apr-01 02:33N 53°35' W 000°02'8 7.9
2015-Apr-01 01:33N 53°33' E 000°10'7 7.1
2015-Apr-01 00:33N 53°33' E 000°22'5 3.8
2015-Mar-31 23:14N 53°29' E 000°28'36 7.6
2015-Mar-31 18:29N 53°09' E 001°17'9 9.3
2015-Mar-31 17:33N 53°02' E 001°27'8 8.2
2015-Mar-31 16:33N 52°56' E 001°36'9 9.0
2015-Mar-31 15:32N 52°50' E 001°48'95 8.5
2015-Mar-31 04:23N 52°29' E 004°21'7 8.5
2015-Mar-31 03:33N 52°28' E 004°32'5 4.6
2015-Mar-31 02:34N 52°28' E 004°40'0 0.2
2015-Mar-31 01:33N 52°28' E 004°40'0 0.0
2015-Mar-31 00:33N 52°28' E 004°40'0 0.0
2015-Mar-30 23:33N 52°28' E 004°40'0 0.0
2015-Mar-30 22:33N 52°28' E 004°40'0 0.0
2015-Mar-30 21:33N 52°28' E 004°40'0 0.0
2015-Mar-30 20:33N 52°28' E 004°40'0 0.0
2015-Mar-30 19:33N 52°28' E 004°40'0 0.0
2015-Mar-30 18:33N 52°28' E 004°40'0 0.0
2015-Mar-30 17:33N 52°28' E 004°40'0 0.0
2015-Mar-30 16:33N 52°28' E 004°40'0 0.0
2015-Mar-30 15:33N 52°28' E 004°40'0 0.0
2015-Mar-30 14:33N 52°28' E 004°40'0 0.0
2015-Mar-30 13:33N 52°28' E 004°40'0 0.0
2015-Mar-30 12:33N 52°28' E 004°40'0 0.0
2015-Mar-30 11:33N 52°28' E 004°40'0 0.0
2015-Mar-30 10:33N 52°28' E 004°40'0 0.0
2015-Mar-30 09:33N 52°28' E 004°40'0 0.0
2015-Mar-30 08:33N 52°28' E 004°40'0 0.0
2015-Mar-30 07:33N 52°28' E 004°40'0 0.0
2015-Mar-30 06:33N 52°28' E 004°40'0 0.0
2015-Mar-30 05:33N 52°28' E 004°40'0 0.0
2015-Mar-30 04:33N 52°28' E 004°40'2 2.4
2015-Mar-30 03:34N 52°28' E 004°36'8 8.2
2015-Mar-30 02:33N 52°31' E 004°23'37711.7
2015-Mar-28 18:17N 58°47' E 005°17'3 3.1
2015-Mar-28 17:27N 58°49' E 005°18'3 3.4
2015-Mar-28 16:33N 58°52' E 005°18'6 6.1
2015-Mar-28 15:33N 58°58' E 005°19'10 9.7
2015-Mar-28 14:33N 59°08' E 005°20'240 5.4
2015-Mar-26 18:06N 63°02' E 007°13'14711.8
2015-Mar-26 05:33N 64°48' E 011°06'5 5.1
2015-Mar-26 04:33N 64°52' E 011°14'5 5.4
2015-Mar-26 03:33N 64°55' E 011°24'1413.9
2015-Mar-26 02:33N 65°05' E 011°47'62 9.9
2015-Mar-25 20:17N 66°04' E 012°38'1013.0
2015-Mar-25 19:33N 66°13' E 012°37'1512.4
2015-Mar-25 18:22N 66°22' E 012°07'910.5
2015-Mar-25 17:33N 66°30' E 012°06'2 1.5
2015-Mar-25 16:31N 66°29' E 012°09'1613.6
2015-Mar-25 15:19N 66°39' E 012°42'1214.0
2015-Mar-25 14:29N 66°44' E 013°08'1213.0
2015-Mar-25 13:33N 66°54' E 013°26'1312.6
2015-Mar-25 12:33N 67°03' E 013°49'1413.8
2015-Mar-25 11:33N 67°14' E 014°09'1413.5
2015-Mar-25 10:34N 67°26' E 014°27'1713.5
2015-Mar-25 09:20N 67°41' E 014°12'1113.5
2015-Mar-25 08:31N 67°52' E 014°03'1413.9
2015-Mar-25 07:30N 68°05' E 013°51'2 2.1
2015-Mar-25 06:25N 68°07' E 013°50'0 0.0
2015-Mar-25 05:15N 68°07' E 013°50'0 0.0
2015-Mar-25 04:32N 68°07' E 013°50'0 0.0
2015-Mar-25 03:28N 68°07' E 013°50'137 5.9
2015-Mar-24 04:16N 69°34' E 018°45'6 7.8
2015-Mar-24 03:33N 69°38' E 018°57'0 0.0
2015-Mar-24 02:33N 69°38' E 018°57'0 0.0
2015-Mar-24 01:33N 69°38' E 018°57'0 0.1
2015-Mar-24 00:33N 69°38' E 018°57'2 1.9
2015-Mar-23 23:33N 69°39' E 018°58'0 0.0
2015-Mar-23 22:33N 69°39' E 018°58'0 0.0
2015-Mar-23 21:33N 69°39' E 018°58'8213.5
2015-Mar-23 15:26N 70°27' E 022°16'1314.6
2015-Mar-23 14:34N 70°31' E 022°52'1413.6
2015-Mar-23 13:33N 70°38' E 023°27'4 4.5
2015-Mar-23 12:33N 70°38' E 023°40'0 0.0
2015-Mar-23 11:34N 70°38' E 023°40'0 0.0
2015-Mar-23 10:33N 70°38' E 023°40'0 0.0
2015-Mar-23 09:33N 70°38' E 023°40'0 0.0
2015-Mar-23 08:33N 70°38' E 023°40'0 0.0
2015-Mar-23 07:34N 70°38' E 023°40'0 0.0
2015-Mar-23 06:33N 70°38' E 023°40'2 1.7
2015-Mar-23 05:33N 70°40' E 023°39'0 0.4
2015-Mar-23 04:33N 70°40' E 023°40'3 3.3
2015-Mar-23 03:33N 70°42' E 023°31'  

Dump ship's entire track history